Lloc web orientat als practicants d'activitats
Centenari de l'SMC: 100 anys mirant el cel

Dades de l'estació automàtica els Alamús

?
?

Resum diari

21:00 TU
Dades diàries de l'estació meteorològica
Temperatura mitjana 11.4 °C
Temperatura màxima 19.4 °C 14:54 TU
Temperatura mínima 1.8 °C 4:30 TU
Humitat relativa mitjana 62%
Precipitació acumulada 0.0 mm
Ratxa màxima del vent (2 m) 15.8 km/h - 339º 14:19 TU

El tram horari està expressat en Temps Universal (TU). Cal sumar una hora en horari d'hivern i dues en horari d'estiu per passar a l'hora oficial.

els Alamús

Metadades estació meteorològica
Municipi Els Alamús
Comarca Segrià
Altitud 235 m
Data alta 22.06.2011
Estat actual Operativa
Dades de període
Període
TU
TM
°C
TX
°C
TN
°C
HRM
%
PPT
mm
VVM (2 m)
km/h
DVM (2 m)
graus
VVX (2 m)
km/h
00:00 - 00:30 5.9 6.5 5.3 72 0.0 1.4 246 3.2
00:30 - 01:00 6.4 6.7 6.0 67 0.0 1.1 264 3.6
01:00 - 01:30 5.6 6.0 5.1 74 0.0 0.4 243 1.8
01:30 - 02:00 4.4 5.1 4.0 84 0.0 0.0 0 0.0
02:00 - 02:30 4.0 4.2 3.9 89 0.0 0.0 0 0.0
02:30 - 03:00 4.0 4.2 3.8 88 0.0 0.7 162 2.2
03:00 - 03:30 4.0 4.0 3.8 88 0.0 1.1 159 2.5
03:30 - 04:00 3.7 3.9 3.3 87 0.0 1.4 158 3.2
04:00 - 04:30 2.5 3.2 1.8 91 0.0 1.4 164 2.9
04:30 - 05:00 2.7 3.3 1.8 89 0.0 1.4 192 2.9
05:00 - 05:30 3.3 3.5 3.2 85 0.0 1.4 224 3.6
05:30 - 06:00 2.6 3.6 2.1 90 0.0 0.0 299 2.2
06:00 - 06:30 5.1 6.0 3.7 84 0.0 1.1 230 4.7
06:30 - 07:00 6.5 7.0 6.0 76 0.0 2.9 242 6.8
07:00 - 07:30 8.0 8.7 7.2 70 0.0 2.9 264 6.8
07:30 - 08:00 9.1 9.5 8.7 66 0.0 2.9 259 7.9
08:00 - 08:30 10.0 10.8 9.4 61 0.0 2.2 237 7.2
08:30 - 09:00 10.9 11.6 10.4 57 0.0 2.5 209 8.3
09:00 - 09:30 12.1 13.2 10.9 53 0.0 2.2 306 7.2
09:30 - 10:00 12.8 13.5 12.1 51 0.0 2.9 249 9.4
10:00 - 10:30 13.9 14.7 13.0 48 0.0 2.9 223 11.2
10:30 - 11:00 14.9 15.7 14.2 47 0.0 3.2 312 9.4
11:00 - 11:30 16.0 16.7 14.8 42 0.0 2.9 243 10.4
11:30 - 12:00 16.6 17.3 15.8 39 0.0 3.6 224 9.0
12:00 - 12:30 17.3 17.8 17.0 38 0.0 4.7 250 14.0
12:30 - 13:00 18.0 18.8 17.4 37 0.0 4.0 274 12.6
13:00 - 13:30 17.8 18.2 17.4 36 0.0 4.0 356 12.6
13:30 - 14:00 18.1 18.8 17.7 35 0.0 4.3 31 13.0
14:00 - 14:30 18.0 18.8 17.6 36 0.0 5.4 43 15.8
14:30 - 15:00 18.7 19.4 18.2 33 0.0 3.6 9 10.8
15:00 - 15:30 18.5 19.1 17.9 35 0.0 5.8 49 13.0
15:30 - 16:00 17.7 17.9 17.6 38 0.0 6.1 69 10.4
16:00 - 16:30 17.9 18.1 17.8 36 0.0 4.7 93 9.7
16:30 - 17:00 17.5 17.8 17.4 42 0.0 3.2 54 7.2
17:00 - 17:30 16.9 17.4 16.4 51 0.0 5.8 82 15.1
17:30 - 18:00 16.1 16.3 15.6 60 0.0 5.8 163 13.7
18:00 - 18:30 15.1 15.5 14.5 62 0.0 3.6 195 10.8
18:30 - 19:00 14.1 14.5 13.8 66 0.0 1.4 199 5.8
19:00 - 19:30 13.5 13.8 13.3 71 0.0 1.8 197 4.0
19:30 - 20:00 13.1 13.3 13.0 73 0.0 0.7 171 3.6
20:00 - 20:30 12.8 13.0 12.5 74 0.0 1.4 102 5.0
20:30 - 21:00 12.4 12.8 12.0 77 0.0 2.9 66 5.8
21:00 - 21:30 11.9 12.0 11.8 83 0.0 4.0 84 6.8
21:30 - 22:00 (s/d) (s/d) (s/d) (s/d) (s/d) (s/d) (s/d) (s/d)

Les dades en taronja només han passat un control de qualitat automàtic. Resta pendent la seva validació definitiva.